createdAt,value
2018-04-12T00:00:13.603Z,10.80
2018-04-12T00:02:41.159Z,12.43
2018-04-12T00:05:09.730Z,13.37
2018-04-12T00:07:37.354Z,14.00
2018-04-12T00:10:04.914Z,12.27
2018-04-12T00:12:32.503Z,10.07
2018-04-12T00:15:00.066Z,10.50
2018-04-12T00:17:27.627Z,9.40
2018-04-12T00:19:55.503Z,9.97
2018-04-12T00:22:23.068Z,10.30
2018-04-12T00:24:50.779Z,11.73
2018-04-12T00:27:18.366Z,12.87
2018-04-12T00:29:46.094Z,12.07
2018-04-12T00:32:13.653Z,16.50
2018-04-12T00:34:41.245Z,13.10
2018-04-12T00:37:08.870Z,9.87
2018-04-12T00:39:36.426Z,11.97
2018-04-12T00:42:04.036Z,11.90
2018-04-12T00:44:31.601Z,11.33
2018-04-12T00:46:59.365Z,9.97
2018-04-12T00:49:27.183Z,8.83
2018-04-12T00:51:54.772Z,10.13
2018-04-12T00:54:22.391Z,8.87
2018-04-12T00:56:50.048Z,9.20
2018-04-12T00:59:17.611Z,8.37
2018-04-12T01:01:45.169Z,8.00
2018-04-12T01:04:12.773Z,10.67
2018-04-12T01:06:40.402Z,10.63
2018-04-12T01:09:08.466Z,10.07
2018-04-12T01:11:36.182Z,10.27
2018-04-12T01:14:03.747Z,10.37
2018-04-12T01:16:31.305Z,8.70
2018-04-12T01:18:59.678Z,9.90
2018-04-12T01:21:28.220Z,9.83
2018-04-12T01:23:55.947Z,9.80
2018-04-12T01:26:23.543Z,9.00
2018-04-12T01:28:51.097Z,9.60
2018-04-12T01:31:18.725Z,8.30
2018-04-12T01:33:46.350Z,9.07
2018-04-12T01:36:14.019Z,11.73
2018-04-12T01:38:41.574Z,15.37
2018-04-12T01:41:09.167Z,21.10
2018-04-12T01:43:36.722Z,13.33
2018-04-12T01:46:04.396Z,12.73
2018-04-12T01:48:31.989Z,13.07
2018-04-12T01:50:59.545Z,13.03
2018-04-12T01:53:27.102Z,16.30
2018-04-12T01:55:54.755Z,24.33
2018-04-12T01:58:22.347Z,15.70
2018-04-12T02:00:49.903Z,12.40
2018-04-12T02:03:17.503Z,12.23
2018-04-12T02:05:45.079Z,10.73
2018-04-12T02:08:12.948Z,9.80
2018-04-12T02:10:40.694Z,9.67
2018-04-12T02:13:08.264Z,14.27
2018-04-12T02:15:35.834Z,14.50
2018-04-12T02:18:03.794Z,13.50
2018-04-12T02:20:31.351Z,14.30
2018-04-12T02:22:59.110Z,13.77
2018-04-12T02:25:27.649Z,12.60
2018-04-12T02:27:55.974Z,11.73
2018-04-12T02:30:23.542Z,11.83
2018-04-12T02:32:51.397Z,11.60
2018-04-12T02:35:19.394Z,10.77
2018-04-12T02:37:46.978Z,10.53
2018-04-12T02:40:15.372Z,9.97
2018-04-12T02:42:43.104Z,9.40
2018-04-12T02:45:10.666Z,10.03
2018-04-12T02:47:38.302Z,11.57
2018-04-12T02:50:05.866Z,11.13
2018-04-12T02:52:33.426Z,12.33
2018-04-12T02:55:01.185Z,12.40
2018-04-12T02:57:28.746Z,12.03
2018-04-12T02:59:56.308Z,12.67
2018-04-12T03:02:23.906Z,13.73
2018-04-12T03:04:51.550Z,12.83
2018-04-12T03:07:19.160Z,14.70
2018-04-12T03:09:46.742Z,19.17
2018-04-12T03:12:14.326Z,16.57
2018-04-12T03:14:41.890Z,16.53
2018-04-12T03:17:10.246Z,16.90
2018-04-12T03:19:38.572Z,15.37
2018-04-12T03:22:06.330Z,11.10
2018-04-12T03:24:34.190Z,13.83
2018-04-12T03:27:01.836Z,11.97
2018-04-12T03:29:30.159Z,12.10
2018-04-12T03:31:57.764Z,13.67
2018-04-12T03:34:26.091Z,13.37
2018-04-12T03:36:53.685Z,11.77
2018-04-12T03:39:21.277Z,12.23
2018-04-12T03:41:48.836Z,13.73
2018-04-12T03:44:16.445Z,12.53
2018-04-12T03:46:44.048Z,19.37
2018-04-12T03:49:12.515Z,14.80
2018-04-12T03:51:40.058Z,17.63
2018-04-12T03:54:07.646Z,16.53
2018-04-12T03:56:35.214Z,15.67
2018-04-12T03:59:02.774Z,16.43
2018-04-12T04:01:30.664Z,17.13
2018-04-12T04:03:58.529Z,17.20
2018-04-12T04:06:26.090Z,18.73
2018-04-12T04:08:53.706Z,19.93
2018-04-12T04:11:22.025Z,21.20
2018-04-12T04:13:49.589Z,25.73
2018-04-12T04:16:29.045Z,28.70
2018-04-12T04:19:08.862Z,28.33
2018-04-12T04:21:36.495Z,32.57
2018-04-12T04:24:04.237Z,33.17
2018-04-12T04:26:32.861Z,28.37
2018-04-12T04:29:00.465Z,28.73
2018-04-12T04:31:28.034Z,26.77
2018-04-12T04:33:55.690Z,28.70
2018-04-12T04:36:23.314Z,30.17
2018-04-12T04:38:50.870Z,34.70
2018-04-12T04:41:18.434Z,32.23
2018-04-12T04:43:46.110Z,41.13
2018-04-12T04:46:14.154Z,34.80
2018-04-12T04:48:41.732Z,30.20
2018-04-12T04:51:09.373Z,33.57
2018-04-12T04:53:37.134Z,30.07
2018-04-12T04:56:04.695Z,29.43
2018-04-12T04:58:32.296Z,33.40
2018-04-12T05:00:59.913Z,32.50
2018-04-12T05:03:27.488Z,31.00
2018-04-12T05:05:55.618Z,31.57
2018-04-12T05:08:23.317Z,35.77
2018-04-12T05:10:50.997Z,39.60
2018-04-12T05:13:18.933Z,41.33
2018-04-12T05:15:46.494Z,45.63
2018-04-12T05:18:14.066Z,39.83
2018-04-12T05:20:41.734Z,44.40
2018-04-12T05:23:09.311Z,42.37
2018-04-12T05:25:36.900Z,42.60
2018-04-12T05:28:04.818Z,38.67
2018-04-12T05:30:32.373Z,35.33
2018-04-12T05:33:00.105Z,30.67
2018-04-12T05:35:27.714Z,25.70
2018-04-12T05:37:55.292Z,27.00
2018-04-12T05:40:23.632Z,30.47
2018-04-12T05:42:51.258Z,29.67
2018-04-12T05:45:19.032Z,27.87
2018-04-12T05:47:46.927Z,28.97
2018-04-12T05:50:14.633Z,27.97
2018-04-12T05:52:42.234Z,26.93
2018-04-12T05:55:10.600Z,30.80
2018-04-12T05:57:38.390Z,29.60
2018-04-12T06:00:06.754Z,28.07
2018-04-12T06:02:34.321Z,39.33
2018-04-12T06:05:02.054Z,33.73
2018-04-12T06:07:29.655Z,20.97
2018-04-12T06:09:57.550Z,22.17
2018-04-12T06:12:25.918Z,19.60
2018-04-12T06:14:53.555Z,17.80
2018-04-12T06:17:21.171Z,14.87
2018-04-12T06:19:48.774Z,12.50
2018-04-12T06:22:16.629Z,10.20
2018-04-12T06:24:44.203Z,10.50
2018-04-12T06:27:12.042Z,12.90
2018-04-12T06:29:39.794Z,15.63
2018-04-12T06:32:07.660Z,13.37
2018-04-12T06:34:35.358Z,20.93
2018-04-12T06:37:02.975Z,15.17
2018-04-12T06:39:30.629Z,14.17
2018-04-12T06:41:58.283Z,13.10
2018-04-12T06:44:25.849Z,12.13
2018-04-12T06:46:53.427Z,11.57
2018-04-12T06:49:21.035Z,11.03
2018-04-12T06:51:48.602Z,9.43
2018-04-12T06:54:16.940Z,24.07
2018-04-12T06:56:44.573Z,9.80
2018-04-12T06:59:12.139Z,8.23
2018-04-12T07:01:39.767Z,10.07
2018-04-12T07:04:07.357Z,8.43
2018-04-12T07:06:35.387Z,10.60
2018-04-12T07:09:02.977Z,10.67
2018-04-12T07:11:30.590Z,11.77
2018-04-12T07:13:58.154Z,8.07
2018-04-12T07:16:26.546Z,8.33
2018-04-12T07:18:54.160Z,31.60
2018-04-12T07:21:21.726Z,7.87
2018-04-12T07:23:49.322Z,9.80
2018-04-12T07:26:16.955Z,11.80
2018-04-12T07:28:44.551Z,10.00
2018-04-12T07:31:12.339Z,10.43
2018-04-12T07:33:39.937Z,9.30
2018-04-12T07:36:07.506Z,9.33
2018-04-12T07:38:35.922Z,9.03
2018-04-12T07:41:03.690Z,7.80
2018-04-12T07:43:31.636Z,8.10
2018-04-12T07:46:05.093Z,7.90
2018-04-12T07:48:32.654Z,8.70
2018-04-12T07:51:00.277Z,8.70
2018-04-12T07:53:28.244Z,8.17
2018-04-12T07:55:55.826Z,8.17
2018-04-12T07:58:23.456Z,15.77
2018-04-12T08:00:51.194Z,9.53
2018-04-12T08:03:18.763Z,8.73
2018-04-12T08:05:46.338Z,10.30
2018-04-12T08:08:14.075Z,8.63
2018-04-12T08:10:42.446Z,8.70
2018-04-12T08:13:10.018Z,8.77
2018-04-12T08:15:37.627Z,10.20
2018-04-12T08:18:05.194Z,20.83
2018-04-12T08:20:33.766Z,9.50
2018-04-12T08:23:01.467Z,6.70
2018-04-12T08:25:29.798Z,5.03
2018-04-12T08:27:57.752Z,14.57
2018-04-12T08:30:25.668Z,4.80
2018-04-12T08:32:54.088Z,5.63
2018-04-12T08:35:21.647Z,4.83
2018-04-12T08:37:49.328Z,9.97
2018-04-12T08:40:16.980Z,4.33
2018-04-12T08:42:44.829Z,4.07
2018-04-12T08:45:12.446Z,4.00
2018-04-12T08:47:40.062Z,3.70
2018-04-12T08:50:07.620Z,3.10
2018-04-12T08:52:35.237Z,3.43
2018-04-12T08:55:03.575Z,3.07
2018-04-12T08:57:31.190Z,3.30
2018-04-12T08:59:59.121Z,3.00
2018-04-12T09:02:28.049Z,3.47
2018-04-12T09:04:55.606Z,3.43
2018-04-12T09:07:23.434Z,3.40
2018-04-12T09:09:51.084Z,3.60
2018-04-12T09:12:18.649Z,4.07
2018-04-12T09:14:47.028Z,3.90
2018-04-12T09:17:14.586Z,3.27
2018-04-12T09:19:42.143Z,3.30
2018-04-12T09:22:09.851Z,3.10
2018-04-12T09:24:37.414Z,3.30
2018-04-12T09:27:05.180Z,4.30
2018-04-12T09:29:32.845Z,3.33
2018-04-12T09:32:00.408Z,3.60
2018-04-12T09:34:28.259Z,3.50
2018-04-12T09:36:55.926Z,3.60
2018-04-12T09:39:23.534Z,8.27
2018-04-12T09:41:51.090Z,4.10
2018-04-12T09:44:18.955Z,5.63
2018-04-12T09:46:46.549Z,3.83
2018-04-12T09:49:14.469Z,3.90
2018-04-12T09:51:42.119Z,3.80
2018-04-12T09:54:09.797Z,4.57
2018-04-12T09:56:37.361Z,3.97
2018-04-12T09:59:04.972Z,4.50
2018-04-12T10:01:38.210Z,4.10
2018-04-12T10:04:20.689Z,4.30
2018-04-12T10:06:52.362Z,4.40
2018-04-12T10:09:20.101Z,4.60
2018-04-12T10:11:47.699Z,4.20
2018-04-12T10:14:15.259Z,5.05
2018-04-12T10:16:43.664Z,4.12
2018-04-12T10:19:11.266Z,4.28
2018-04-12T10:21:38.842Z,4.45
2018-04-12T10:24:06.406Z,4.35
2018-04-12T10:26:34.058Z,4.30
2018-04-12T10:29:01.619Z,4.65
2018-04-12T10:31:29.183Z,4.60
2018-04-12T10:33:56.774Z,4.60
2018-04-12T10:36:25.639Z,4.78
2018-04-12T10:38:53.200Z,5.10
2018-04-12T10:41:21.017Z,5.65
2018-04-12T10:43:48.580Z,7.40
2018-04-12T10:46:16.235Z,5.57
2018-04-12T10:48:43.953Z,5.12
2018-04-12T10:51:12.435Z,10.82
2018-04-12T10:53:40.762Z,8.73
2018-04-12T10:56:08.399Z,4.43
2018-04-12T10:58:35.964Z,7.05
2018-04-12T11:01:03.634Z,4.37
2018-04-12T11:03:31.714Z,4.80
2018-04-12T11:05:59.295Z,4.53
2018-04-12T11:08:26.866Z,3.90
2018-04-12T11:10:54.551Z,4.47
2018-04-12T11:13:23.036Z,4.05
2018-04-12T11:15:51.371Z,4.32
2018-04-12T11:18:19.381Z,4.50
2018-04-12T11:20:47.993Z,4.30
2018-04-12T11:23:15.604Z,4.75
2018-04-12T11:25:48.980Z,4.87
2018-04-12T11:28:16.711Z,4.03
2018-04-12T11:30:44.271Z,3.40
2018-04-12T11:33:11.918Z,20.98
2018-04-12T11:35:39.781Z,6.97
2018-04-12T11:38:07.776Z,18.33
2018-04-12T11:40:35.518Z,5.97
2018-04-12T11:43:03.098Z,4.12
2018-04-12T11:45:30.674Z,3.87
2018-04-12T11:47:58.294Z,4.12
2018-04-12T11:50:25.926Z,4.68
2018-04-12T11:52:54.254Z,4.37
2018-04-12T11:55:21.847Z,4.00
2018-04-12T11:57:49.409Z,4.85
2018-04-12T12:00:17.184Z,4.00
2018-04-12T12:02:44.882Z,4.45
2018-04-12T12:05:12.450Z,4.55
2018-04-12T12:07:40.007Z,4.12
2018-04-12T12:10:07.846Z,4.45
2018-04-12T12:12:35.508Z,3.78
2018-04-12T12:15:03.074Z,3.97
2018-04-12T12:17:30.806Z,4.30
2018-04-12T12:19:59.436Z,4.03
2018-04-12T12:22:26.995Z,3.70
2018-04-12T12:24:54.798Z,4.35
2018-04-12T12:27:22.360Z,3.72
2018-04-12T12:29:49.947Z,3.90
2018-04-12T12:32:17.549Z,4.07
2018-04-12T12:34:45.119Z,3.97
2018-04-12T12:37:12.849Z,3.92
2018-04-12T12:39:40.768Z,3.50
2018-04-12T12:42:09.115Z,3.70
2018-04-12T12:44:36.853Z,3.72
2018-04-12T12:47:04.550Z,4.65
2018-04-12T12:49:32.231Z,6.55
2018-04-12T12:51:59.897Z,4.70
2018-04-12T12:54:28.419Z,6.53
2018-04-12T12:56:56.040Z,5.32
2018-04-12T12:59:23.666Z,4.80
2018-04-12T13:01:51.363Z,3.62
2018-04-12T13:04:19.879Z,4.10
2018-04-12T13:06:47.484Z,5.47
2018-04-12T13:09:15.317Z,5.62
2018-04-12T13:11:43.100Z,3.85
2018-04-12T13:14:10.662Z,5.03
2018-04-12T13:16:38.523Z,4.18
2018-04-12T13:19:06.110Z,4.53
2018-04-12T13:21:33.866Z,5.37
2018-04-12T13:24:01.475Z,4.03
2018-04-12T13:26:29.041Z,4.30
2018-04-12T13:28:56.611Z,4.75
2018-04-12T13:31:25.079Z,4.15
2018-04-12T13:33:52.643Z,4.35
2018-04-12T13:36:20.686Z,4.80
2018-04-12T13:38:48.286Z,4.18
2018-04-12T13:41:15.929Z,4.22
2018-04-12T13:43:43.546Z,4.32
2018-04-12T13:46:11.475Z,4.03
2018-04-12T13:48:39.116Z,4.07
2018-04-12T13:51:06.844Z,4.47
2018-04-12T13:53:35.219Z,4.40
2018-04-12T13:56:02.788Z,4.95
2018-04-12T13:58:31.294Z,4.93
2018-04-12T14:00:58.944Z,4.78
2018-04-12T14:03:26.541Z,4.90
2018-04-12T14:05:54.223Z,4.50
2018-04-12T14:08:22.604Z,4.07
2018-04-12T14:10:50.430Z,4.93
2018-04-12T14:13:17.981Z,4.25
2018-04-12T14:15:45.640Z,4.30
2018-04-12T14:18:13.223Z,4.03
2018-04-12T14:20:41.007Z,4.32
2018-04-12T14:23:08.869Z,5.30
2018-04-12T14:25:36.434Z,5.12
2018-04-12T14:28:04.350Z,4.77
2018-04-12T14:30:31.971Z,5.18
2018-04-12T14:32:59.993Z,5.47
2018-04-12T14:35:27.566Z,5.07
2018-04-12T14:37:55.192Z,6.25
2018-04-12T14:40:22.905Z,5.15
2018-04-12T14:42:50.727Z,4.50
2018-04-12T14:45:18.343Z,5.23
2018-04-12T14:47:45.919Z,4.80
2018-04-12T14:50:13.646Z,5.47
2018-04-12T14:52:41.464Z,5.23
2018-04-12T14:55:09.050Z,4.87
2018-04-12T14:57:36.662Z,5.53
2018-04-12T15:00:04.262Z,5.13
2018-04-12T15:02:31.836Z,4.83
2018-04-12T15:04:59.471Z,4.57
2018-04-12T15:07:27.444Z,6.00
2018-04-12T15:09:55.101Z,4.50
2018-04-12T15:12:22.667Z,4.62
2018-04-12T15:14:50.290Z,4.20
2018-04-12T15:17:18.170Z,4.97
2018-04-12T15:19:45.737Z,6.00
2018-04-12T15:22:13.913Z,4.60
2018-04-12T15:24:41.776Z,4.43
2018-04-12T15:27:09.344Z,4.20
2018-04-12T15:29:37.056Z,4.40
2018-04-12T15:32:04.664Z,4.15
2018-04-12T15:34:32.420Z,4.68
2018-04-12T15:37:00.107Z,4.75
2018-04-12T15:39:27.987Z,4.18
2018-04-12T15:41:55.915Z,4.45
2018-04-12T15:44:23.963Z,4.75
2018-04-12T15:46:51.719Z,4.62
2018-04-12T15:49:19.286Z,4.83
2018-04-12T15:51:46.950Z,4.80
2018-04-12T15:54:14.560Z,6.57
2018-04-12T15:56:42.130Z,7.47
2018-04-12T15:59:10.259Z,5.62
2018-04-12T16:01:38.026Z,6.37
2018-04-12T16:04:05.582Z,5.40
2018-04-12T16:06:33.180Z,5.40
2018-04-12T16:09:00.737Z,5.30
2018-04-12T16:11:28.313Z,4.93
2018-04-12T16:13:55.949Z,5.77
2018-04-12T16:16:23.514Z,5.53
2018-04-12T16:18:51.121Z,4.97
2018-04-12T16:21:18.834Z,5.07
2018-04-12T16:23:46.412Z,5.00
2018-04-12T16:26:13.981Z,4.80
2018-04-12T16:28:41.583Z,4.53
2018-04-12T16:31:09.233Z,4.83
2018-04-12T16:33:36.799Z,5.83
2018-04-12T16:36:04.399Z,9.60
2018-04-12T16:38:33.035Z,10.50
2018-04-12T16:41:00.676Z,9.60
2018-04-12T16:43:28.473Z,8.80
2018-04-12T16:45:56.428Z,7.60
2018-04-12T16:48:24.130Z,7.80
2018-04-12T16:50:51.744Z,10.30
2018-04-12T16:53:19.461Z,11.93
2018-04-12T16:55:47.805Z,9.40
2018-04-12T16:58:15.455Z,10.40
2018-04-12T17:00:43.018Z,21.37
2018-04-12T17:03:10.587Z,32.27
2018-04-12T17:05:38.202Z,44.57
2018-04-12T17:08:05.779Z,36.83
2018-04-12T17:10:33.350Z,24.30
2018-04-12T17:13:00.957Z,28.60
2018-04-12T17:15:29.587Z,28.53
2018-04-12T17:17:57.207Z,29.97
2018-04-12T17:20:25.008Z,29.00
2018-04-12T17:22:52.670Z,29.07
2018-04-12T17:25:20.241Z,29.67
2018-04-12T17:27:47.890Z,25.83
2018-04-12T17:30:15.743Z,25.63
2018-04-12T17:32:43.469Z,23.77
2018-04-12T17:35:12.868Z,22.80
2018-04-12T17:37:40.662Z,22.30
2018-04-12T17:40:08.325Z,23.43
2018-04-12T17:42:35.931Z,22.27
2018-04-12T17:45:03.572Z,23.00
2018-04-12T17:47:31.225Z,24.37
2018-04-12T17:49:58.836Z,23.67
2018-04-12T17:52:26.423Z,22.63
2018-04-12T17:54:54.012Z,25.40
2018-04-12T17:57:21.622Z,28.80
2018-04-12T17:59:49.327Z,38.30
2018-04-12T18:02:16.898Z,44.00
2018-04-12T18:04:44.507Z,35.27
2018-04-12T18:07:12.845Z,31.13
2018-04-12T18:09:40.447Z,25.67
2018-04-12T18:12:08.059Z,25.53
2018-04-12T18:14:35.655Z,21.53
2018-04-12T18:17:03.259Z,21.87
2018-04-12T18:19:30.884Z,22.80
2018-04-12T18:21:59.215Z,24.93
2018-04-12T18:24:26.787Z,27.40
2018-04-12T18:26:54.578Z,29.53
2018-04-12T18:29:22.155Z,32.40
2018-04-12T18:31:49.734Z,27.83
2018-04-12T18:34:17.416Z,24.53
2018-04-12T18:36:45.031Z,25.80
2018-04-12T18:39:12.627Z,33.30
2018-04-12T18:41:40.234Z,34.67
2018-04-12T18:44:08.586Z,36.00
2018-04-12T18:46:36.172Z,29.73
2018-04-12T18:49:04.042Z,30.73
2018-04-12T18:51:31.668Z,30.73
2018-04-12T18:53:59.279Z,29.13
2018-04-12T18:56:27.211Z,28.67
2018-04-12T18:58:55.744Z,29.57
2018-04-12T19:01:23.482Z,27.20
2018-04-12T19:03:51.105Z,28.97
2018-04-12T19:06:18.873Z,29.83
2018-04-12T19:08:46.483Z,32.33
2018-04-12T19:11:14.088Z,39.63
2018-04-12T19:13:41.692Z,22.37
2018-04-12T19:16:09.291Z,36.73
2018-04-12T19:18:37.136Z,45.27
2018-04-12T19:21:04.711Z,44.43
2018-04-12T19:23:32.467Z,47.40
2018-04-12T19:26:00.090Z,44.50
2018-04-12T19:28:27.663Z,39.53
2018-04-12T19:30:55.290Z,31.10
2018-04-12T19:33:23.651Z,22.73
2018-04-12T19:35:51.444Z,29.87
2018-04-12T19:38:19.021Z,25.37
2018-04-12T19:40:46.796Z,23.30
2018-04-12T19:43:14.399Z,22.07
2018-04-12T19:45:41.990Z,31.73
2018-04-12T19:48:09.596Z,39.87
2018-04-12T19:50:37.357Z,47.03
2018-04-12T19:53:04.944Z,47.83
2018-04-12T19:55:32.589Z,44.33
2018-04-12T19:58:00.378Z,36.73
2018-04-12T20:00:28.906Z,40.63
2018-04-12T20:02:56.526Z,46.50
2018-04-12T20:05:24.173Z,34.57
2018-04-12T20:07:52.042Z,30.27
2018-04-12T20:10:20.432Z,43.17
2018-04-12T20:12:48.537Z,30.10
2018-04-12T20:15:16.298Z,39.70
2018-04-12T20:17:44.268Z,52.00
2018-04-12T20:20:11.875Z,47.40
2018-04-12T20:22:40.354Z,47.40
2018-04-12T20:25:07.927Z,53.87
2018-04-12T20:27:36.267Z,49.70
2018-04-12T20:30:04.113Z,48.43
2018-04-12T20:32:31.709Z,43.90
2018-04-12T20:34:59.323Z,39.70
2018-04-12T20:37:27.039Z,46.00
2018-04-12T20:39:55.401Z,41.93
2018-04-12T20:42:22.979Z,35.97
2018-04-12T20:44:51.508Z,32.33
2018-04-12T20:47:19.136Z,25.40
2018-04-12T20:49:46.828Z,25.37
2018-04-12T20:52:14.532Z,28.00
2018-04-12T20:54:42.917Z,28.53
2018-04-12T20:57:11.311Z,29.57
2018-04-12T20:59:38.942Z,25.17
2018-04-12T21:02:06.587Z,25.13
2018-04-12T21:04:34.221Z,24.57
2018-04-12T21:07:01.814Z,23.33
2018-04-12T21:09:29.447Z,24.37
2018-04-12T21:11:57.189Z,22.57
2018-04-12T21:14:24.813Z,25.43
2018-04-12T21:16:52.670Z,26.23
2018-04-12T21:19:20.338Z,26.83
2018-04-12T21:21:48.022Z,23.67
2018-04-12T21:24:16.462Z,18.00
2018-04-12T21:26:44.017Z,15.13
2018-04-12T21:29:11.739Z,15.40
2018-04-12T21:31:39.489Z,14.57
2018-04-12T21:34:07.050Z,14.27
2018-04-12T21:36:34.738Z,14.17
2018-04-12T21:39:03.167Z,15.73
2018-04-12T21:41:30.726Z,16.97
2018-04-12T21:43:58.507Z,17.40
2018-04-12T21:46:26.275Z,19.30
2018-04-12T21:48:53.860Z,17.53
2018-04-12T21:51:21.439Z,16.30
2018-04-12T21:53:49.242Z,17.33
2018-04-12T21:56:17.710Z,22.27
2018-04-12T21:58:46.047Z,17.80
2018-04-12T22:01:13.663Z,17.63
2018-04-12T22:03:41.993Z,31.37
2018-04-12T22:06:09.558Z,21.87
2018-04-12T22:08:37.225Z,31.63
2018-04-12T22:11:04.787Z,24.63
2018-04-12T22:13:33.877Z,17.13
2018-04-12T22:16:02.309Z,14.10
2018-04-12T22:18:29.873Z,21.23
2018-04-12T22:20:57.430Z,35.07
2018-04-12T22:23:25.082Z,45.37
2018-04-12T22:25:52.694Z,72.60
2018-04-12T22:28:20.514Z,93.30
2018-04-12T22:30:48.108Z,86.93
2018-04-12T22:33:15.662Z,40.37
2018-04-12T22:35:43.245Z,39.33
2018-04-12T22:38:10.846Z,35.23
2018-04-12T22:40:38.435Z,31.63
2018-04-12T22:43:05.990Z,35.17
2018-04-12T22:45:33.767Z,26.53
2018-04-12T22:48:01.366Z,32.43
2018-04-12T22:50:28.923Z,26.97
2018-04-12T22:52:57.357Z,34.53
2018-04-12T22:55:25.524Z,32.37
2018-04-12T22:57:53.203Z,27.40
2018-04-12T23:00:21.571Z,27.23
2018-04-12T23:02:49.286Z,25.37
2018-04-12T23:05:16.878Z,18.23
2018-04-12T23:07:44.491Z,18.60
2018-04-12T23:10:12.055Z,18.50
2018-04-12T23:12:40.510Z,19.47
2018-04-12T23:15:08.218Z,20.63
2018-04-12T23:17:36.058Z,20.23
2018-04-12T23:20:04.378Z,42.53
2018-04-12T23:22:31.982Z,48.57
2018-04-12T23:25:00.375Z,47.80
2018-04-12T23:27:27.930Z,51.60
2018-04-12T23:29:56.289Z,49.47
2018-04-12T23:32:25.463Z,47.17
2018-04-12T23:34:53.150Z,38.13
2018-04-12T23:37:20.746Z,39.13
2018-04-12T23:39:48.498Z,38.27
2018-04-12T23:42:16.824Z,37.50
2018-04-12T23:44:44.647Z,36.97
2018-04-12T23:47:12.257Z,36.00
2018-04-12T23:49:39.814Z,30.53
2018-04-12T23:52:07.524Z,30.43
2018-04-12T23:54:35.206Z,26.47
2018-04-12T23:57:03.699Z,28.77
2018-04-12T23:59:31.311Z,26.03
